Time;durP1;ratioP1;P1;durP2;ratioP2;P2;SDS_P1;SDS_P2;PMS_P1;PMS_P2;Temp;Humidity;BMP_temperature;BMP_pressure;BME280_temperature;BME280_humidity;BME280_pressure;Samples;Min_cycle;Max_cycle;Signal;HPM_P1;HPM_P2
2022/08/14 00:00:18;;;;;;;2.28;0.90;;;21.60;99.90;;;;;;5045138;28;20037;-82
2022/08/14 00:02:44;;;;;;;1.52;1.00;;;21.60;99.90;;;;;;5064713;28;20036;-84
2022/08/14 00:05:14;;;;;;;1.85;0.98;;;21.60;99.90;;;;;;5050624;28;20081;-82
2022/08/14 00:07:39;;;;;;;;;;;21.60;99.90;;;;;;5058661;28;20108;-84
2022/08/14 00:10:08;;;;;;;2.30;0.93;;;21.60;99.90;;;;;;5045919;28;20345;-82
2022/08/14 00:12:37;;;;;;;1.87;1.00;;;21.60;99.90;;;;;;5048730;28;20029;-81
2022/08/14 00:15:25;;;;;;;1.65;0.80;;;21.50;99.90;;;;;;5064128;28;20063;-83
2022/08/14 00:17:51;;;;;;;1.92;1.00;;;21.50;99.90;;;;;;5043131;28;20481;-81
2022/08/14 00:20:19;;;;;;;3.63;1.15;;;21.50;99.90;;;;;;5055346;28;20116;-84
2022/08/14 00:22:46;;;;;;;1.63;1.00;;;21.50;99.90;;;;;;5056592;28;20040;-82
2022/08/14 00:25:12;;;;;;;1.88;0.85;;;21.50;99.90;;;;;;5059174;28;20078;-83
2022/08/14 00:27:38;;;;;;;1.98;1.10;;;21.50;99.90;;;;;;5049959;28;20455;-80
2022/08/14 00:30:09;;;;;;;2.75;1.02;;;21.50;99.90;;;;;;5066005;28;20025;-81
2022/08/14 00:32:35;;;;;;;2.10;1.00;;;21.50;99.90;;;;;;5058261;28;20036;-80
2022/08/14 00:35:01;;;;;;;2.42;0.98;;;21.50;99.90;;;;;;5060487;28;20029;-85
2022/08/14 00:37:28;;;;;;;2.80;1.25;;;21.40;99.90;;;;;;5055628;28;20022;-84
2022/08/14 00:39:53;;;;;;;1.83;1.17;;;21.40;99.90;;;;;;5048072;28;20060;-82
2022/08/14 00:42:20;;;;;;;3.22;1.00;;;21.40;99.90;;;;;;5059127;28;20036;-83
2022/08/14 00:44:46;;;;;;;2.17;0.93;;;21.30;99.90;;;;;;5067625;28;20024;-81
2022/08/14 00:47:17;;;;;;;4.38;1.35;;;21.30;99.90;;;;;;5049056;28;20025;-80
2022/08/14 00:49:44;;;;;;;2.38;0.90;;;21.30;99.90;;;;;;5044665;28;20028;-81
2022/08/14 00:52:15;;;;;;;2.83;1.13;;;21.30;99.90;;;;;;5047390;28;20090;-87
2022/08/14 00:54:42;;;;;;;2.60;0.93;;;21.30;99.90;;;;;;5060747;28;20024;-86
2022/08/14 00:57:08;;;;;;;1.55;1.00;;;21.30;99.90;;;;;;5048465;28;20573;-80
2022/08/14 00:59:34;;;;;;;2.85;1.20;;;21.20;99.90;;;;;;5072207;28;20135;-85
2022/08/14 01:02:01;;;;;;;2.30;0.98;;;21.20;99.90;;;;;;5048427;28;20033;-82
2022/08/14 01:04:30;;;;;;;1.95;1.00;;;21.20;99.90;;;;;;5062646;28;20036;-84
2022/08/14 01:06:57;;;;;;;2.13;1.00;;;21.20;99.90;;;;;;5058130;28;20369;-84
2022/08/14 01:09:23;;;;;;;3.03;1.10;;;21.10;99.90;;;;;;5044839;28;20472;-80
2022/08/14 01:11:50;;;;;;;2.08;1.20;;;21.10;99.90;;;;;;5056531;28;20036;-82
2022/08/14 01:14:18;;;;;;;1.70;0.85;;;21.10;99.90;;;;;;5060281;28;20149;-84
2022/08/14 01:16:44;;;;;;;1.40;0.85;;;21.10;99.90;;;;;;5061116;28;20163;-85
2022/08/14 01:21:55;;;;;;;1.90;1.45;;;21.10;99.90;;;;;;5073120;28;20044;-81
2022/08/14 01:24:24;;;;;;;2.63;1.10;;;21.00;99.90;;;;;;5060614;28;20025;-87
2022/08/14 01:26:52;;;;;;;;;;;21.00;99.90;;;;;;5044042;28;20031;-85
2022/08/14 01:29:18;;;;;;;1.60;1.02;;;20.90;99.90;;;;;;5072038;28;19916;-82
2022/08/14 01:31:47;;;;;;;2.70;1.13;;;20.90;99.90;;;;;;5043678;28;20029;-85
2022/08/14 01:34:13;;;;;;;1.70;1.20;;;20.90;99.90;;;;;;5064629;28;20749;-85
2022/08/14 01:36:38;;;;;;;1.70;1.00;;;20.90;99.90;;;;;;5063493;28;20055;-84
2022/08/14 01:39:08;;;;;;;2.75;1.05;;;20.80;99.90;;;;;;5064526;28;20044;-83
2022/08/14 01:41:35;;;;;;;2.03;1.13;;;20.80;99.90;;;;;;5077282;28;20036;-79
2022/08/14 01:44:05;;;;;;;2.03;1.45;;;20.70;99.90;;;;;;5056250;28;20519;-81
2022/08/14 01:46:33;;;;;;;2.33;1.35;;;20.70;99.90;;;;;;5051478;28;20028;-80
2022/08/14 01:49:00;;;;;;;1.83;1.25;;;20.70;99.90;;;;;;5052227;28;20028;-80
2022/08/14 01:51:27;;;;;;;1.98;1.60;;;20.60;99.90;;;;;;5063839;28;20066;-83
2022/08/14 01:54:06;;;;;;;3.05;1.20;;;20.60;99.90;;;;;;5067804;28;20035;-85
2022/08/14 01:59:08;;;;;;;2.25;2.00;;;20.60;99.90;;;;;;5058637;28;20029;-84
2022/08/14 02:01:34;;;;;;;1.73;1.33;;;20.60;99.90;;;;;;5075677;28;20714;-82
2022/08/14 02:04:04;;;;;;;2.63;1.48;;;20.60;99.90;;;;;;5050662;28;20025;-85
2022/08/14 02:06:30;;;;;;;2.15;1.65;;;20.50;99.90;;;;;;5066846;28;20087;-84
2022/08/14 02:08:57;;;;;;;2.65;1.98;;;20.40;99.90;;;;;;5060027;28;20502;-86
2022/08/14 02:11:23;;;;;;;2.03;1.27;;;20.30;99.90;;;;;;5060370;28;20593;-85
2022/08/14 02:13:58;;;;;;;2.40;1.90;;;20.30;99.90;;;;;;5051020;28;20436;-85
2022/08/14 02:16:29;;;;;;;2.50;1.50;;;20.10;99.90;;;;;;5066386;28;20086;-83
2022/08/14 02:18:57;;;;;;;4.00;1.88;;;20.10;99.90;;;;;;5063098;28;20024;-80
2022/08/14 02:21:23;;;;;;;2.13;1.42;;;20.00;99.90;;;;;;5046422;28;20037;-81
2022/08/14 02:23:53;;;;;;;2.45;1.67;;;19.90;99.90;;;;;;5046396;28;20034;-81
2022/08/14 02:26:31;;;;;;;2.35;1.60;;;19.90;99.90;;;;;;5052047;28;20065;-84
2022/08/14 02:29:19;;;;;;;2.83;2.25;;;19.80;99.90;;;;;;5063719;28;20067;-80
2022/08/14 02:31:48;;;;;;;2.00;1.63;;;19.80;99.90;;;;;;5045270;28;20469;-81
2022/08/14 02:34:17;;;;;;;2.37;1.60;;;19.70;99.90;;;;;;5045859;28;20066;-85
2022/08/14 02:36:45;;;;;;;2.75;1.50;;;19.70;99.90;;;;;;5079856;28;20024;-80
2022/08/14 02:39:12;;;;;;;2.63;2.05;;;19.70;99.90;;;;;;5042679;28;20040;-82
2022/08/14 02:41:39;;;;;;;2.10;1.75;;;19.70;99.90;;;;;;5063644;28;20452;-81
2022/08/14 02:44:09;;;;;;;3.00;1.50;;;19.70;99.90;;;;;;5077901;28;20423;-84
2022/08/14 02:46:39;;;;;;;2.92;1.85;;;19.70;99.90;;;;;;5077618;28;20036;-85
2022/08/14 02:49:05;;;;;;;2.15;1.80;;;19.70;99.90;;;;;;5053532;28;20040;-85
2022/08/14 02:51:32;;;;;;;2.42;2.22;;;19.60;99.90;;;;;;5048150;28;20033;-80
2022/08/14 02:53:58;;;;;;;2.30;1.80;;;19.50;99.90;;;;;;5064092;28;20028;-80
2022/08/14 02:56:26;;;;;;;2.25;1.85;;;19.60;99.90;;;;;;5048074;28;20111;-85
2022/08/14 02:58:55;;;;;;;3.55;1.80;;;19.50;99.90;;;;;;5065310;28;20021;-86
2022/08/14 03:01:22;;;;;;;2.23;1.83;;;19.40;99.90;;;;;;5065321;28;20028;-86
2022/08/14 03:03:51;;;;;;;2.75;2.50;;;19.40;99.90;;;;;;5052859;28;20025;-83
2022/08/14 03:06:24;;;;;;;2.97;2.50;;;19.30;99.90;;;;;;5053634;28;20024;-84
2022/08/14 03:08:52;;;;;;;2.30;1.90;;;19.10;99.90;;;;;;5076392;28;20040;-83
2022/08/14 03:11:18;;;;;;;2.80;2.35;;;19.00;99.90;;;;;;5061635;28;20036;-85
2022/08/14 03:13:46;;;;;;;2.90;2.50;;;18.90;99.90;;;;;;5063973;28;20043;-85
2022/08/14 03:16:14;;;;;;;3.42;2.25;;;18.90;99.90;;;;;;5067054;28;20040;-82
2022/08/14 03:18:45;;;;;;;7.88;3.60;;;18.90;99.90;;;;;;5061691;28;20036;-80
2022/08/14 03:21:17;;;;;;;3.15;2.65;;;18.80;99.90;;;;;;5062989;28;20036;-82
2022/08/14 03:23:45;;;;;;;2.97;2.08;;;18.80;99.90;;;;;;5075180;28;20029;-85
2022/08/14 03:26:14;;;;;;;2.72;2.35;;;18.90;99.90;;;;;;5061075;28;20028;-84
2022/08/14 03:28:42;;;;;;;2.95;2.15;;;18.80;99.90;;;;;;5063766;28;20032;-84
2022/08/14 03:31:09;;;;;;;2.80;2.50;;;18.80;99.90;;;;;;5041102;28;20575;-85
2022/08/14 03:33:36;;;;;;;4.70;2.95;;;18.70;99.90;;;;;;5081020;28;20034;-81
2022/08/14 03:36:11;;;;;;;3.00;2.70;;;18.70;99.90;;;;;;5069535;28;20032;-80
2022/08/14 03:38:41;;;;;;;3.10;2.65;;;18.70;99.90;;;;;;5052833;28;20028;-80
2022/08/14 03:41:27;;;;;;;3.08;2.78;;;18.70;99.90;;;;;;5066073;28;20377;-80
2022/08/14 03:44:00;;;;;;;3.88;2.80;;;18.70;99.90;;;;;;5074975;28;20472;-84
2022/08/14 03:46:30;;;;;;;3.05;2.65;;;18.80;99.90;;;;;;5067073;28;20054;-80
2022/08/14 03:48:56;;;;;;;3.33;2.80;;;18.90;99.90;;;;;;5046296;28;20028;-86
2022/08/14 03:51:27;;;;;;;2.58;2.38;;;18.80;99.90;;;;;;5065297;28;20458;-80
2022/08/14 03:53:56;;;;;;;2.92;2.72;;;18.80;99.90;;;;;;5062738;28;20039;-87
2022/08/14 03:56:24;;;;;;;3.13;2.75;;;18.70;99.90;;;;;;5077349;28;20024;-81
2022/08/14 03:58:55;;;;;;;3.35;2.97;;;18.70;99.90;;;;;;5077906;28;20032;-82
2022/08/14 04:01:23;;;;;;;4.70;2.88;;;18.70;99.90;;;;;;5057837;28;20039;-83
2022/08/14 04:03:51;;;;;;;3.25;2.70;;;18.60;99.90;;;;;;5053526;28;20059;-80
2022/08/14 04:06:19;;;;;;;4.22;3.17;;;18.60;99.90;;;;;;5049065;28;20020;-87
2022/08/14 04:08:45;;;;;;;7.07;3.15;;;18.60;99.90;;;;;;5044692;28;20033;-83
2022/08/14 04:11:12;;;;;;;3.33;3.03;;;18.50;99.90;;;;;;5049374;28;20161;-85
2022/08/14 04:13:40;;;;;;;3.13;2.83;;;18.50;99.90;;;;;;5071218;28;20024;-87
2022/08/14 04:16:14;;;;;;;3.70;3.40;;;18.50;99.90;;;;;;5070224;28;20054;-85
2022/08/14 04:18:42;;;;;;;3.60;3.30;;;18.40;99.90;;;;;;5062536;28;20823;-85
2022/08/14 04:21:09;;;;;;;3.95;3.08;;;18.50;99.90;;;;;;5064408;28;20093;-84
2022/08/14 04:23:35;;;;;;;3.33;3.00;;;18.40;99.90;;;;;;5065648;28;20029;-85
2022/08/14 04:26:03;;;;;;;3.47;3.10;;;18.40;99.90;;;;;;5070254;28;20089;-85
2022/08/14 04:28:30;;;;;;;4.95;3.90;;;18.50;99.90;;;;;;5059486;28;20039;-86
2022/08/14 04:30:55;;;;;;;4.43;2.97;;;18.40;99.90;;;;;;5048267;28;20077;-85
2022/08/14 04:33:23;;;;;;;4.80;3.25;;;18.40;99.90;;;;;;5077644;28;20243;-82
2022/08/14 04:35:50;;;;;;;4.65;3.47;;;18.50;99.90;;;;;;5074099;28;20530;-85
2022/08/14 04:43:45;;;;;;;3.42;3.10;;;18.60;99.90;;;;;;5064755;28;20110;-80
2022/08/14 04:46:14;;;;;;;2.75;2.53;;;18.50;99.90;;;;;;5079842;28;20119;-84
2022/08/14 04:48:40;;;;;;;3.55;3.25;;;18.50;99.90;;;;;;5071169;28;20476;-85
2022/08/14 04:51:08;;;;;;;3.60;3.30;;;18.60;99.90;;;;;;5078202;28;20045;-86
2022/08/14 04:53:36;;;;;;;3.60;3.13;;;18.60;99.90;;;;;;5070070;28;20119;-82
2022/08/14 04:56:04;;;;;;;3.70;3.40;;;18.60;99.90;;;;;;5077067;28;20028;-79
2022/08/14 04:58:31;;;;;;;4.05;3.75;;;18.60;99.90;;;;;;5082512;28;20042;-83
2022/08/14 05:00:57;;;;;;;4.05;3.65;;;18.70;99.90;;;;;;5075648;28;20025;-86
2022/08/14 05:03:30;;;;;;;5.07;3.75;;;18.60;99.90;;;;;;5062135;28;20544;-85
2022/08/14 05:05:59;;;;;;;4.05;3.30;;;18.60;99.90;;;;;;5052072;28;20111;-85
2022/08/14 05:08:25;;;;;;;5.68;3.65;;;18.60;99.90;;;;;;5045590;28;20408;-80
2022/08/14 05:10:56;;;;;;;3.97;3.67;;;18.70;99.90;;;;;;5059822;28;20028;-83
2022/08/14 05:13:24;;;;;;;4.05;3.63;;;18.70;99.90;;;;;;5046632;28;20130;-83
2022/08/14 05:15:51;;;;;;;3.85;3.45;;;18.80;99.90;;;;;;5061435;28;20051;-81
2022/08/14 05:18:20;;;;;;;4.38;2.90;;;18.80;99.90;;;;;;5057625;28;20476;-84
2022/08/14 05:20:49;;;;;;;4.53;4.03;;;18.90;99.90;;;;;;5067703;28;20028;-83
2022/08/14 05:23:20;;;;;;;4.57;3.38;;;18.90;99.90;;;;;;5074404;28;20044;-82
2022/08/14 05:25:48;;;;;;;3.95;3.60;;;19.00;99.90;;;;;;5046255;28;20020;-81
2022/08/14 05:28:24;;;;;;;3.85;3.35;;;18.90;99.90;;;;;;5046325;28;20116;-84
2022/08/14 05:31:08;;;;;;;3.88;3.20;;;19.00;99.90;;;;;;5059542;28;20060;-80
2022/08/14 05:33:35;;;;;;;2.65;2.15;;;19.10;99.90;;;;;;5074916;28;20116;-89
2022/08/14 05:36:05;;;;;;;8.77;3.47;;;19.20;99.90;;;;;;5063568;28;20050;-86
2022/08/14 05:38:34;;;;;;;4.20;2.90;;;19.20;99.90;;;;;;5077846;28;20073;-85
2022/08/14 05:41:06;;;;;;;3.70;3.40;;;19.20;99.90;;;;;;5066892;28;20048;-81
2022/08/14 05:43:33;;;;;;;5.43;3.35;;;19.30;99.90;;;;;;5080124;28;20131;-87
2022/08/14 05:46:00;;;;;;;4.95;4.07;;;19.50;99.90;;;;;;5073639;28;20429;-87
2022/08/14 05:48:26;;;;;;;4.68;3.78;;;19.50;99.90;;;;;;5047219;28;20029;-86
2022/08/14 05:50:53;;;;;;;4.32;3.92;;;19.60;99.90;;;;;;5077258;28;20020;-86
2022/08/14 05:53:20;;;;;;;3.03;2.72;;;19.60;99.90;;;;;;5061668;28;20064;-87
2022/08/14 05:55:47;;;;;;;4.35;3.95;;;19.70;99.90;;;;;;5058576;28;20035;-87
2022/08/14 05:58:12;;;;;;;4.85;4.20;;;19.80;99.90;;;;;;5075563;28;20037;-85
2022/08/14 06:00:41;;;;;;;4.97;4.47;;;19.90;99.90;;;;;;5046331;28;20031;-86
2022/08/14 06:03:10;;;;;;;5.40;4.90;;;20.00;99.90;;;;;;5073124;28;20032;-82
2022/08/14 06:05:36;;;;;;;4.00;2.83;;;20.10;99.90;;;;;;5042265;28;20021;-86
2022/08/14 06:08:02;;;;;;;6.25;5.35;;;20.20;99.90;;;;;;5076137;28;20435;-87
2022/08/14 06:10:29;;;;;;;4.75;4.35;;;20.30;99.90;;;;;;5080299;28;20024;-83
2022/08/14 06:12:56;;;;;;;4.70;4.30;;;20.40;99.90;;;;;;5074175;28;20317;-85
2022/08/14 06:15:22;;;;;;;4.68;4.15;;;20.50;99.90;;;;;;5060312;28;20376;-83
2022/08/14 06:17:51;;;;;;;4.13;3.80;;;20.70;99.90;;;;;;5050504;28;20039;-84
2022/08/14 06:20:17;;;;;;;4.07;3.67;;;20.90;99.90;;;;;;5062065;28;20491;-87
2022/08/14 06:22:44;;;;;;;5.47;4.32;;;20.90;99.90;;;;;;5050861;28;20059;-83
2022/08/14 06:25:12;;;;;;;4.50;4.10;;;21.10;99.90;;;;;;5050030;28;20028;-82
2022/08/14 06:27:40;;;;;;;5.22;4.68;;;21.30;99.90;;;;;;5050315;28;20028;-82
2022/08/14 06:30:08;;;;;;;5.53;4.20;;;21.50;99.90;;;;;;5079223;28;20039;-85
2022/08/14 06:32:35;;;;;;;5.35;4.85;;;21.60;99.90;;;;;;5066475;28;20549;-85
2022/08/14 06:35:05;;;;;;;4.97;4.05;;;21.70;99.90;;;;;;5075726;28;20066;-83
2022/08/14 06:37:44;;;;;;;4.63;3.30;;;21.80;99.90;;;;;;5076900;28;20024;-81
2022/08/14 06:40:12;;;;;;;3.88;3.55;;;22.00;99.90;;;;;;5080634;28;20114;-87
2022/08/14 06:42:39;;;;;;;5.05;4.55;;;22.20;99.90;;;;;;5062632;28;20047;-84
2022/08/14 06:45:06;;;;;;;4.22;3.70;;;22.20;99.90;;;;;;5075640;28;20103;-81
2022/08/14 06:47:36;;;;;;;5.45;4.68;;;22.30;99.90;;;;;;5059386;28;20564;-81
2022/08/14 06:50:09;;;;;;;4.55;4.15;;;22.50;99.90;;;;;;5072419;28;20028;-82
2022/08/14 06:52:34;;;;;;;4.20;3.83;;;22.70;99.90;;;;;;5051332;28;20039;-87
2022/08/14 06:55:00;;;;;;;3.53;3.22;;;22.90;99.90;;;;;;5062362;28;20032;-87
2022/08/14 06:57:36;;;;;;;4.88;3.83;;;23.00;99.90;;;;;;5066920;28;20516;-83
2022/08/14 07:00:04;;;;;;;4.93;4.50;;;23.30;99.90;;;;;;5065900;28;20042;-85
2022/08/14 07:07:59;;;;;;;4.88;4.15;;;23.90;99.90;;;;;;5085259;28;20085;-82
2022/08/14 07:10:25;;;;;;;4.57;4.22;;;24.00;99.90;;;;;;5071569;28;20028;-86
2022/08/14 07:12:50;;;;;;;4.55;4.07;;;24.20;99.90;;;;;;5077531;28;20027;-86
2022/08/14 07:15:16;;;;;;;3.88;3.55;;;24.30;99.90;;;;;;5082764;28;20107;-86
2022/08/14 07:17:46;;;;;;;3.78;3.35;;;24.50;99.90;;;;;;5080874;28;20467;-84
2022/08/14 07:20:12;;;;;;;3.95;3.08;;;24.70;99.90;;;;;;5066497;28;20028;-84
2022/08/14 07:22:39;;;;;;;4.03;3.63;;;24.90;99.90;;;;;;5061200;28;20365;-87
2022/08/14 07:25:05;;;;;;;4.78;3.40;;;25.10;99.90;;;;;;5053830;28;20056;-82
2022/08/14 07:27:30;;;;;;;4.63;3.53;;;25.20;99.90;;;;;;5069983;28;20047;-86
2022/08/14 07:29:56;;;;;;;3.42;3.13;;;25.40;99.90;;;;;;5066176;28;20540;-84
2022/08/14 07:32:21;;;;;;;3.65;3.35;;;25.50;99.90;;;;;;5062963;28;20032;-87
2022/08/14 07:34:47;;;;;;;2.95;2.50;;;25.60;99.90;;;;;;5049606;28;20035;-84
2022/08/14 07:37:13;;;;;;;3.22;2.92;;;25.80;99.90;;;;;;5078682;28;20039;-87
2022/08/14 07:39:38;;;;;;;3.33;3.03;;;26.00;99.90;;;;;;5068803;28;20378;-86
2022/08/14 07:42:05;;;;;;;4.03;2.95;;;26.20;99.90;;;;;;5066578;28;20040;-84
2022/08/14 07:44:30;;;;;;;4.07;3.15;;;26.00;99.90;;;;;;5077254;28;20028;-84
2022/08/14 07:46:56;;;;;;;3.53;3.22;;;26.10;99.90;;;;;;5075737;28;20024;-84
2022/08/14 07:49:22;;;;;;;3.30;3.00;;;26.30;99.90;;;;;;5060070;28;20259;-87
2022/08/14 07:51:48;;;;;;;3.50;3.08;;;26.50;99.90;;;;;;5069258;28;20039;-84
2022/08/14 07:54:15;;;;;;;3.50;3.10;;;26.80;99.90;;;;;;5052613;28;20469;-87
2022/08/14 07:56:40;;;;;;;4.30;3.55;;;26.90;99.90;;;;;;5066074;28;20495;-84
2022/08/14 07:59:06;;;;;;;4.65;3.55;;;27.00;99.90;;;;;;5061944;28;20028;-87
2022/08/14 08:01:33;;;;;;;3.47;3.03;;;27.10;99.90;;;;;;5069287;28;20039;-83
2022/08/14 08:04:02;;;;;;;4.35;2.65;;;27.20;99.90;;;;;;5048898;28;20017;-86
2022/08/14 08:06:29;;;;;;;3.38;2.90;;;27.40;99.90;;;;;;5065635;28;20056;-86
2022/08/14 08:08:58;;;;;;;3.80;2.53;;;27.50;99.90;;;;;;5063406;28;20021;-86
2022/08/14 08:11:26;;;;;;;4.07;2.50;;;27.70;99.90;;;;;;5081457;28;20586;-85
2022/08/14 08:13:54;;;;;;;4.05;2.67;;;27.70;99.90;;;;;;5046996;28;20080;-85
2022/08/14 08:16:22;;;;;;;3.85;2.53;;;27.70;99.90;;;;;;5062451;28;20108;-85
2022/08/14 08:18:49;;;;;;;7.30;2.25;;;28.00;99.90;;;;;;5078451;28;20460;-85
2022/08/14 08:21:16;;;;;;;2.40;2.20;;;28.20;99.90;;;;;;5064243;28;20412;-85
2022/08/14 08:23:41;;;;;;;2.40;1.90;;;28.30;99.90;;;;;;5058832;28;20825;-84
2022/08/14 08:26:07;;;;;;;2.75;2.42;;;28.40;99.90;;;;;;5069278;28;20152;-83
2022/08/14 08:28:33;;;;;;;2.28;2.05;;;28.40;99.90;;;;;;5064717;28;20100;-84
2022/08/14 08:31:06;;;;;;;3.13;2.55;;;28.60;99.90;;;;;;5078833;28;20046;-85
2022/08/14 08:33:38;;;;;;;3.17;2.13;;;28.50;99.90;;;;;;5082344;28;20028;-85
2022/08/14 08:36:10;;;;;;;2.67;2.42;;;28.70;99.90;;;;;;5066306;28;20528;-86
2022/08/14 08:38:35;;;;;;;3.30;2.40;;;28.70;99.90;;;;;;5087217;28;20039;-84
2022/08/14 08:41:02;;;;;;;3.20;2.35;;;28.70;99.90;;;;;;5084333;28;20048;-84
2022/08/14 08:43:33;;;;;;;2.80;2.30;;;28.80;99.90;;;;;;5071092;28;20093;-86
2022/08/14 08:46:05;;;;;;;3.00;2.80;;;28.60;99.90;;;;;;5078317;28;20511;-85
2022/08/14 08:48:48;;;;;;;2.35;1.92;;;28.70;99.90;;;;;;5074883;28;20024;-85
2022/08/14 08:51:30;;;;;;;3.08;2.53;;;29.00;99.90;;;;;;5078539;28;20020;-86
2022/08/14 08:54:05;;;;;;;3.30;2.95;;;29.10;99.90;;;;;;5067877;28;20062;-84
2022/08/14 08:56:36;;;;;;;2.70;2.50;;;29.10;99.90;;;;;;5067155;28;20107;-85
2022/08/14 08:59:14;;;;;;;3.78;2.03;;;29.10;99.90;;;;;;5091538;28;20035;-85
2022/08/14 09:01:40;;;;;;;3.00;2.30;;;29.40;99.90;;;;;;5069356;28;20032;-85
2022/08/14 09:04:08;;;;;;;3.35;3.00;;;29.80;99.90;;;;;;5082821;28;20028;-85
2022/08/14 09:06:43;;;;;;;2.33;1.88;;;29.80;99.90;;;;;;5094110;28;20524;-86
2022/08/14 09:09:51;;;;;;;2.78;1.85;;;29.80;99.90;;;;;;5079251;28;20035;-85
2022/08/14 09:12:18;;;;;;;3.25;2.55;;;30.20;99.90;;;;;;5044691;28;20036;-85
2022/08/14 09:14:46;;;;;;;3.70;2.20;;;30.10;99.90;;;;;;5094370;28;20036;-84
2022/08/14 09:17:12;;;;;;;1.80;1.55;;;30.10;99.90;;;;;;5059074;28;20062;-85
2022/08/14 09:19:38;;;;;;;3.30;2.50;;;30.30;99.90;;;;;;5079853;28;21106;-84
2022/08/14 09:22:05;;;;;;;2.03;1.75;;;30.10;99.90;;;;;;5085240;28;20043;-84
2022/08/14 09:24:31;;;;;;;3.17;1.80;;;30.30;99.90;;;;;;5074404;28;20023;-84
2022/08/14 09:26:57;;;;;;;2.83;2.35;;;30.30;99.90;;;;;;5091425;27;20024;-84
2022/08/14 09:29:23;;;;;;;2.13;1.92;;;30.10;99.90;;;;;;5080667;28;20035;-85
2022/08/14 09:31:53;;;;;;;2.15;1.80;;;30.30;99.90;;;;;;5065994;28;20019;-85
2022/08/14 09:34:43;;;;;;;2.33;2.13;;;30.60;99.90;;;;;;5079758;28;20020;-85
2022/08/14 09:37:36;;;;;;;2.50;1.73;;;30.70;99.90;;;;;;5078847;28;20399;-84
2022/08/14 09:40:26;;;;;;;2.40;1.33;;;31.00;99.90;;;;;;5062729;28;20041;-85
2022/08/14 09:43:31;;;;;;;2.75;2.00;;;31.20;99.90;;;;;;5082461;28;20031;-85
2022/08/14 09:45:57;;;;;;;2.08;1.60;;;31.40;99.90;;;;;;5069139;28;20148;-84
2022/08/14 09:48:25;;;;;;;3.53;1.70;;;31.00;99.90;;;;;;5083071;28;20107;-85
2022/08/14 09:50:56;;;;;;;1.92;1.45;;;31.10;99.90;;;;;;5095452;28;20024;-85
2022/08/14 09:53:43;;;;;;;1.85;1.38;;;30.90;99.90;;;;;;5077575;28;20035;-84
2022/08/14 09:56:12;;;;;;;2.30;1.60;;;31.20;99.90;;;;;;5078234;28;20032;-85
2022/08/14 09:58:45;;;;;;;3.45;1.30;;;31.20;99.90;;;;;;5058509;28;20500;-84
2022/08/14 10:01:16;;;;;;;1.80;1.35;;;31.60;99.90;;;;;;5064804;28;20122;-84
2022/08/14 10:03:56;;;;;;;1.92;1.30;;;31.90;99.90;;;;;;5082820;28;20051;-85
2022/08/14 10:06:26;;;;;;;1.35;0.88;;;31.70;99.90;;;;;;5081089;28;20043;-85
2022/08/14 10:09:05;;;;;;;1.80;1.48;;;32.00;99.90;;;;;;5082657;28;20043;-85
2022/08/14 10:11:35;;;;;;;1.77;1.20;;;31.70;99.90;;;;;;5088132;28;20028;-85
2022/08/14 10:14:23;;;;;;;1.50;1.13;;;31.80;99.90;;;;;;5083513;28;20024;-85
2022/08/14 10:16:53;;;;;;;1.83;1.42;;;32.40;99.90;;;;;;5072380;28;20485;-85
2022/08/14 10:19:21;;;;;;;2.70;1.13;;;32.60;99.90;;;;;;5086660;28;20043;-85
2022/08/14 10:22:07;;;;;;;1.95;1.30;;;32.80;99.90;;;;;;5081691;28;20109;-85
2022/08/14 10:24:40;;;;;;;2.00;1.00;;;32.30;99.90;;;;;;5067125;28;20016;-86
2022/08/14 10:27:17;;;;;;;1.50;1.00;;;31.90;99.90;;;;;;5089604;28;20029;-85
2022/08/14 10:29:48;;;;;;;1.98;1.45;;;32.10;99.90;;;;;;5083545;28;20027;-86
2022/08/14 10:32:14;;;;;;;1.38;0.88;;;32.10;99.90;;;;;;5071449;28;20201;-83
2022/08/14 10:34:40;;;;;;;1.40;1.10;;;32.10;99.10;;;;;;5088259;28;20174;-85
2022/08/14 10:37:15;;;;;;;1.92;1.13;;;32.10;99.80;;;;;;5095397;28;20039;-85
2022/08/14 10:39:42;;;;;;;1.60;1.10;;;32.40;99.90;;;;;;5070297;28;20408;-85
2022/08/14 10:42:13;;;;;;;2.80;1.08;;;32.50;99.90;;;;;;5083042;28;20048;-85
2022/08/14 10:44:46;;;;;;;1.92;1.10;;;32.20;99.90;;;;;;5072653;28;20028;-85
2022/08/14 10:47:12;;;;;;;1.38;1.05;;;32.40;99.70;;;;;;5091813;28;20027;-85
2022/08/14 10:49:48;;;;;;;2.30;1.20;;;32.30;99.50;;;;;;5080169;28;20028;-85
2022/08/14 10:52:28;;;;;;;2.55;1.20;;;32.40;99.60;;;;;;5064771;28;20093;-86
2022/08/14 10:55:07;;;;;;;3.35;0.60;;;32.30;99.20;;;;;;5087376;28;20254;-85
2022/08/14 10:57:34;;;;;;;1.38;0.93;;;32.60;99.80;;;;;;5100249;27;20371;-87
2022/08/14 11:00:12;;;;;;;1.50;0.80;;;32.50;98.70;;;;;;5069819;28;20032;-86
2022/08/14 11:02:39;;;;;;;1.60;0.90;;;32.80;98.80;;;;;;5097126;28;20040;-86
2022/08/14 11:05:13;;;;;;;1.75;0.85;;;32.70;99.10;;;;;;5099327;28;20028;-85
2022/08/14 11:07:40;;;;;;;2.40;1.10;;;32.60;98.50;;;;;;5065652;28;20388;-85
2022/08/14 11:10:12;;;;;;;1.77;1.17;;;32.60;98.40;;;;;;5097266;28;20460;-84
2022/08/14 11:12:50;;;;;;;3.70;1.00;;;32.80;98.80;;;;;;5063367;28;20112;-85
2022/08/14 11:15:22;;;;;;;1.85;0.80;;;32.90;98.60;;;;;;5072533;28;20054;-85
2022/08/14 11:17:49;;;;;;;2.15;1.20;;;33.30;98.80;;;;;;5079206;28;20032;-89
2022/08/14 11:20:17;;;;;;;1.40;0.93;;;32.80;99.10;;;;;;5099227;28;20099;-85
2022/08/14 11:22:44;;;;;;;2.47;1.00;;;33.00;99.10;;;;;;5077527;28;20036;-86
2022/08/14 11:25:12;;;;;;;1.52;0.90;;;33.10;98.50;;;;;;5082345;28;20036;-91
2022/08/14 11:27:41;;;;;;;1.77;1.10;;;33.10;98.40;;;;;;5067401;28;20496;-84
2022/08/14 11:30:10;;;;;;;1.48;1.00;;;32.80;98.40;;;;;;5070075;28;20395;-84
2022/08/14 11:32:47;;;;;;;1.20;0.88;;;32.60;98.70;;;;;;5078501;28;20391;-85
2022/08/14 11:35:19;;;;;;;3.00;1.10;;;32.90;98.20;;;;;;5090466;28;20115;-87
2022/08/14 11:38:02;;;;;;;3.60;1.00;;;33.40;97.90;;;;;;5085882;28;20101;-87
2022/08/14 11:40:30;;;;;;;2.67;1.00;;;33.30;98.10;;;;;;5084147;28;20040;-85
2022/08/14 11:42:57;;;;;;;1.60;0.85;;;33.00;98.10;;;;;;5069175;28;20398;-86
2022/08/14 11:45:25;;;;;;;2.40;0.85;;;33.50;98.70;;;;;;5086768;28;20031;-86
2022/08/14 11:47:55;;;;;;;1.08;0.73;;;33.50;97.70;;;;;;5096664;27;20039;-85
2022/08/14 11:50:23;;;;;;;1.02;0.68;;;33.60;98.00;;;;;;5062841;28;20032;-86
2022/08/14 11:52:52;;;;;;;1.88;0.75;;;33.90;97.80;;;;;;5071970;28;20031;-84
2022/08/14 11:55:18;;;;;;;1.80;0.68;;;34.00;97.60;;;;;;5088021;28;20386;-85
2022/08/14 11:57:44;;;;;;;1.48;1.10;;;33.70;97.90;;;;;;5069530;28;20036;-85
2022/08/14 12:00:18;;;;;;;1.50;0.80;;;33.40;97.40;;;;;;5068513;28;20038;-85
2022/08/14 12:02:52;;;;;;;1.50;0.60;;;33.90;97.30;;;;;;5069656;28;20044;-86
2022/08/14 12:05:37;;;;;;;1.30;0.80;;;34.00;96.90;;;;;;5097026;28;20491;-84
2022/08/14 12:08:06;;;;;;;1.20;0.77;;;33.90;97.10;;;;;;5077089;28;20024;-87
2022/08/14 12:10:33;;;;;;;1.45;0.80;;;33.40;96.40;;;;;;5067862;28;20069;-84
2022/08/14 12:13:14;;;;;;;1.20;0.85;;;33.10;96.90;;;;;;5086583;28;20067;-86
2022/08/14 12:15:41;;;;;;;1.35;0.60;;;33.10;97.30;;;;;;5089130;28;20080;-85
2022/08/14 12:18:07;;;;;;;1.63;1.20;;;33.50;97.80;;;;;;5062016;28;20028;-85
2022/08/14 12:20:41;;;;;;;1.15;0.82;;;32.80;96.90;;;;;;5081259;28;20034;-87
2022/08/14 12:23:22;;;;;;;2.67;0.73;;;33.20;97.60;;;;;;5067845;28;20143;-86
2022/08/14 12:25:48;;;;;;;1.10;0.73;;;33.70;97.40;;;;;;5093005;28;20027;-85
2022/08/14 12:28:14;;;;;;;2.25;0.77;;;32.60;96.70;;;;;;5083916;28;20115;-86
2022/08/14 12:30:43;;;;;;;1.25;0.70;;;32.20;97.00;;;;;;5067067;28;20563;-86
2022/08/14 12:33:26;;;;;;;2.42;0.68;;;32.10;97.40;;;;;;5077145;28;20632;-85
2022/08/14 12:35:54;;;;;;;1.52;0.60;;;32.20;97.20;;;;;;5053574;28;20028;-84
2022/08/14 12:38:36;;;;;;;1.30;0.80;;;32.10;97.40;;;;;;5060389;28;20027;-85
2022/08/14 12:41:08;;;;;;;0.98;0.68;;;32.40;97.20;;;;;;5064743;28;20402;-86
2022/08/14 12:43:47;;;;;;;1.63;0.63;;;33.00;97.30;;;;;;5079607;28;20039;-84
2022/08/14 12:46:23;;;;;;;1.40;0.70;;;32.60;97.30;;;;;;5094506;28;20085;-85
2022/08/14 12:48:49;;;;;;;1.77;0.70;;;32.20;97.30;;;;;;5081844;28;20032;-85
2022/08/14 12:51:20;;;;;;;1.27;0.88;;;31.80;97.20;;;;;;5084612;28;20110;-85
2022/08/14 12:53:46;;;;;;;2.45;0.98;;;31.70;97.40;;;;;;5097452;28;20043;-85
2022/08/14 12:56:17;;;;;;;1.73;0.90;;;31.40;97.20;;;;;;5083962;28;20950;-85
2022/08/14 12:58:49;;;;;;;2.33;0.95;;;31.40;97.60;;;;;;5072763;28;20024;-85
2022/08/14 13:01:28;;;;;;;1.98;0.80;;;31.50;97.50;;;;;;5067463;28;20047;-86
2022/08/14 13:04:11;;;;;;;1.77;0.80;;;32.30;97.40;;;;;;5059767;28;20043;-85
2022/08/14 13:06:43;;;;;;;3.05;0.80;;;32.60;97.10;;;;;;5069287;28;20069;-85
2022/08/14 13:09:11;;;;;;;1.38;0.80;;;32.50;96.30;;;;;;5080274;28;20032;-85
2022/08/14 13:11:44;;;;;;;1.45;0.98;;;32.50;96.80;;;;;;5062417;28;20464;-85
2022/08/14 13:14:16;;;;;;;2.55;1.05;;;32.50;96.60;;;;;;5073338;28;20036;-85
2022/08/14 13:16:43;;;;;;;1.42;0.80;;;32.40;96.90;;;;;;5087667;28;20030;-86